createdAt,value
2023-05-14T00:02:17.701Z,5.10
2023-05-14T00:04:45.461Z,5.90
2023-05-14T00:07:13.432Z,6.00
2023-05-14T00:09:41.253Z,5.90
2023-05-14T00:12:09.037Z,5.40
2023-05-14T00:14:36.796Z,5.50
2023-05-14T00:17:04.656Z,6.20
2023-05-14T00:19:32.439Z,5.60
2023-05-14T00:22:00.533Z,5.70
2023-05-14T00:24:28.316Z,6.30
2023-05-14T00:26:56.059Z,5.40
2023-05-14T00:29:23.995Z,5.40
2023-05-14T00:31:51.874Z,5.20
2023-05-14T00:34:19.693Z,5.50
2023-05-14T00:36:47.517Z,5.90
2023-05-14T00:39:15.342Z,6.20
2023-05-14T00:41:43.478Z,5.80
2023-05-14T00:44:11.290Z,6.10
2023-05-14T00:46:39.118Z,6.20
2023-05-14T00:49:07.136Z,5.50
2023-05-14T00:51:35.046Z,5.40
2023-05-14T00:54:02.802Z,5.10
2023-05-14T00:56:30.692Z,5.40
2023-05-14T00:58:58.553Z,5.30
2023-05-14T01:01:28.697Z,5.90
2023-05-14T01:03:58.053Z,5.70
2023-05-14T01:06:37.659Z,5.40
2023-05-14T01:09:32.802Z,5.40
2023-05-14T01:12:12.450Z,6.00
2023-05-14T01:15:02.780Z,6.10
2023-05-14T01:17:33.218Z,5.50
2023-05-14T01:20:01.958Z,6.60
2023-05-14T01:22:29.825Z,5.80
2023-05-14T01:24:57.836Z,6.20
2023-05-14T01:27:53.567Z,5.80
2023-05-14T01:30:47.045Z,6.10
2023-05-14T01:33:18.264Z,5.40
2023-05-14T01:35:46.575Z,5.30
2023-05-14T01:38:18.459Z,6.40
2023-05-14T01:40:46.923Z,5.90
2023-05-14T01:43:15.812Z,6.40
2023-05-14T01:45:44.026Z,6.90
2023-05-14T01:48:12.911Z,6.70
2023-05-14T01:50:40.863Z,6.20
2023-05-14T01:53:09.889Z,6.10
2023-05-14T01:55:37.749Z,6.50
2023-05-14T01:58:05.622Z,6.60
2023-05-14T02:00:33.590Z,7.30
2023-05-14T02:03:01.420Z,7.10
2023-05-14T02:05:29.312Z,6.80
2023-05-14T02:07:57.127Z,7.20
2023-05-14T02:10:25.465Z,7.20
2023-05-14T02:12:53.949Z,6.80
2023-05-14T02:15:21.739Z,7.30
2023-05-14T02:17:50.116Z,6.60
2023-05-14T02:20:18.098Z,6.80
2023-05-14T02:22:46.418Z,7.00
2023-05-14T02:25:14.834Z,8.20
2023-05-14T02:27:42.630Z,7.30
2023-05-14T02:30:11.330Z,6.90
2023-05-14T02:32:42.180Z,6.60
2023-05-14T02:35:10.706Z,6.40
2023-05-14T02:37:38.541Z,6.80
2023-05-14T02:40:07.456Z,6.80
2023-05-14T02:42:35.618Z,6.90
2023-05-14T02:45:03.747Z,6.80
2023-05-14T02:47:31.683Z,6.40
2023-05-14T02:50:00.699Z,7.20
2023-05-14T02:52:28.490Z,7.10
2023-05-14T02:54:56.219Z,6.70
2023-05-14T02:57:24.197Z,6.70
2023-05-14T02:59:52.142Z,6.70
2023-05-14T03:02:20.492Z,6.50
2023-05-14T03:04:48.884Z,6.50
2023-05-14T03:07:19.373Z,6.90
2023-05-14T03:09:47.257Z,7.20
2023-05-14T03:12:15.202Z,7.00
2023-05-14T03:14:44.320Z,7.10
2023-05-14T03:17:12.245Z,7.10
2023-05-14T03:19:40.860Z,7.20
2023-05-14T03:22:08.935Z,7.40
2023-05-14T03:24:40.066Z,7.50
2023-05-14T03:27:08.824Z,6.70
2023-05-14T03:29:36.618Z,7.60
2023-05-14T03:32:05.172Z,7.00
2023-05-14T03:34:33.080Z,7.90
2023-05-14T03:37:01.209Z,7.20
2023-05-14T03:39:29.024Z,8.00
2023-05-14T03:41:58.897Z,7.50
2023-05-14T03:44:27.013Z,7.90
2023-05-14T03:46:54.765Z,7.10
2023-05-14T03:49:22.651Z,7.70
2023-05-14T03:51:51.606Z,9.00
2023-05-14T03:54:19.414Z,8.70
2023-05-14T03:56:48.374Z,9.10
2023-05-14T03:59:16.222Z,8.90
2023-05-14T04:01:47.066Z,9.00
2023-05-14T04:04:14.878Z,8.40
2023-05-14T04:06:42.705Z,8.50
2023-05-14T04:09:11.946Z,8.60
2023-05-14T04:11:39.746Z,8.50
2023-05-14T04:14:07.753Z,8.90
2023-05-14T04:16:35.605Z,8.20
2023-05-14T04:19:06.555Z,9.00
2023-05-14T04:21:35.834Z,8.70
2023-05-14T04:24:04.690Z,8.70
2023-05-14T04:26:33.485Z,8.70
2023-05-14T04:29:03.127Z,9.20
2023-05-14T04:31:31.766Z,9.60
2023-05-14T04:33:59.720Z,8.90
2023-05-14T04:36:27.461Z,9.60
2023-05-14T04:38:56.037Z,9.70
2023-05-14T04:41:23.842Z,9.10
2023-05-14T04:43:51.605Z,8.90
2023-05-14T04:46:19.849Z,8.70
2023-05-14T04:48:51.684Z,9.00
2023-05-14T04:51:19.414Z,8.70
2023-05-14T04:53:47.786Z,8.80
2023-05-14T04:56:15.763Z,7.70
2023-05-14T04:58:43.629Z,7.80
2023-05-14T05:01:11.445Z,8.30
2023-05-14T05:03:39.462Z,8.40
2023-05-14T05:06:07.846Z,9.10
2023-05-14T05:08:36.848Z,9.30
2023-05-14T05:11:05.112Z,8.70
2023-05-14T05:13:32.968Z,8.50
2023-05-14T05:16:00.825Z,8.80
2023-05-14T05:18:28.681Z,8.50
2023-05-14T05:20:57.054Z,10.20
2023-05-14T05:23:24.813Z,11.80
2023-05-14T05:25:52.665Z,9.50
2023-05-14T05:28:20.508Z,9.00
2023-05-14T05:30:48.471Z,10.00
2023-05-14T05:33:16.412Z,8.90
2023-05-14T05:35:44.751Z,9.00
2023-05-14T05:38:12.592Z,8.40
2023-05-14T05:40:40.548Z,9.90
2023-05-14T05:43:08.351Z,9.00
2023-05-14T05:45:36.201Z,9.80
2023-05-14T05:48:04.277Z,9.90
2023-05-14T05:50:32.269Z,9.30
2023-05-14T05:53:00.114Z,10.00
2023-05-14T05:55:28.856Z,8.90
2023-05-14T05:57:56.633Z,9.70
2023-05-14T06:00:24.809Z,9.80
2023-05-14T06:02:56.521Z,9.60
2023-05-14T06:05:25.395Z,9.50
2023-05-14T06:07:53.790Z,9.40
2023-05-14T06:10:22.330Z,8.80
2023-05-14T06:12:50.365Z,8.60
2023-05-14T06:15:19.799Z,8.70
2023-05-14T06:17:47.969Z,8.50
2023-05-14T06:20:15.904Z,8.40
2023-05-14T06:22:44.028Z,8.20
2023-05-14T06:25:12.052Z,8.90
2023-05-14T06:27:39.811Z,8.20
2023-05-14T06:30:08.436Z,8.10
2023-05-14T06:32:36.366Z,8.50
2023-05-14T06:35:04.528Z,7.70
2023-05-14T06:37:32.300Z,7.70
2023-05-14T06:40:01.157Z,7.80
2023-05-14T06:42:29.019Z,8.00
2023-05-14T06:44:56.739Z,7.50
2023-05-14T06:47:24.852Z,8.10
2023-05-14T06:49:52.775Z,7.70
2023-05-14T06:52:20.508Z,7.80
2023-05-14T06:54:48.333Z,7.80
2023-05-14T06:57:16.274Z,7.70
2023-05-14T06:59:44.081Z,8.40
2023-05-14T07:02:12.431Z,6.50
2023-05-14T07:04:40.516Z,7.20
2023-05-14T07:07:10.704Z,7.10
2023-05-14T07:09:38.493Z,7.60
2023-05-14T07:12:07.052Z,7.30
2023-05-14T07:14:35.185Z,6.90
2023-05-14T07:17:03.197Z,6.80
2023-05-14T07:19:31.042Z,7.40
2023-05-14T07:21:58.844Z,7.50
2023-05-14T07:24:26.641Z,6.90
2023-05-14T07:26:55.268Z,6.20
2023-05-14T07:29:25.046Z,6.60
2023-05-14T07:31:52.970Z,6.50
2023-05-14T07:34:21.090Z,6.20
2023-05-14T07:36:48.926Z,5.90
2023-05-14T07:39:17.859Z,6.00
2023-05-14T07:41:46.042Z,5.90
2023-05-14T07:44:15.988Z,5.60
2023-05-14T07:46:44.862Z,4.50
2023-05-14T07:49:12.977Z,5.20
2023-05-14T07:51:40.723Z,4.60
2023-05-14T07:54:09.758Z,5.70
2023-05-14T07:56:37.534Z,4.40
2023-05-14T07:59:07.116Z,4.80
2023-05-14T13:02:42.752Z,1.70
2023-05-14T13:05:12.033Z,2.30
2023-05-14T13:07:40.226Z,2.60
2023-05-14T13:10:08.681Z,2.00
2023-05-14T13:12:36.572Z,1.90
2023-05-14T13:15:05.482Z,1.90
2023-05-14T13:17:33.247Z,1.70
2023-05-14T13:20:01.243Z,1.70
2023-05-14T13:22:29.429Z,1.60
2023-05-14T13:24:57.323Z,1.90
2023-05-14T13:27:25.290Z,1.80
2023-05-14T13:29:53.241Z,1.60
2023-05-14T13:32:21.012Z,1.90
2023-05-14T13:34:48.755Z,1.50
2023-05-14T13:37:16.782Z,1.90
2023-05-14T13:39:44.549Z,1.90
2023-05-14T13:42:12.397Z,1.90
2023-05-14T13:44:40.303Z,1.70
2023-05-14T13:47:08.587Z,1.90
2023-05-14T13:49:36.383Z,1.60
2023-05-14T13:52:04.667Z,1.90
2023-05-14T13:54:32.916Z,1.70
2023-05-14T13:57:00.707Z,2.00
2023-05-14T13:59:28.517Z,1.90
2023-05-14T14:01:56.251Z,2.00
2023-05-14T14:04:28.071Z,2.10
2023-05-14T14:06:56.070Z,1.80
2023-05-14T14:09:25.572Z,1.90
2023-05-14T14:11:53.615Z,1.70
2023-05-14T14:14:21.563Z,1.80
2023-05-14T14:16:49.367Z,1.70
2023-05-14T14:19:18.509Z,1.90
2023-05-14T14:21:46.591Z,2.20
2023-05-14T14:24:14.503Z,2.10
2023-05-14T14:26:42.342Z,2.00
2023-05-14T14:29:10.177Z,1.80
2023-05-14T14:31:38.209Z,2.10
2023-05-14T14:34:06.283Z,1.80
2023-05-14T14:36:34.032Z,2.00
2023-05-14T14:39:01.983Z,1.80
2023-05-14T14:41:29.943Z,2.00
2023-05-14T14:43:57.745Z,2.30
2023-05-14T14:46:26.639Z,2.10
2023-05-14T14:48:54.503Z,4.00
2023-05-14T14:51:24.070Z,2.10
2023-05-14T14:53:52.991Z,2.10
2023-05-14T14:56:21.272Z,1.90
2023-05-14T14:58:51.408Z,2.40
2023-05-14T15:01:21.312Z,2.50
2023-05-14T15:03:49.250Z,2.30
2023-05-14T15:06:18.346Z,2.60
2023-05-14T15:08:46.176Z,2.70
2023-05-14T15:11:14.387Z,2.70
2023-05-14T15:13:43.171Z,2.90
2023-05-14T15:16:11.288Z,3.00
2023-05-14T15:18:39.113Z,3.10
2023-05-14T15:21:08.158Z,3.40
2023-05-14T15:23:36.564Z,3.80
2023-05-14T15:26:06.439Z,3.10
2023-05-14T15:28:34.297Z,3.00
2023-05-14T15:31:03.582Z,3.20
2023-05-14T15:33:31.394Z,3.30
2023-05-14T15:35:59.228Z,3.50
2023-05-14T15:38:27.009Z,3.80
2023-05-14T15:40:54.780Z,3.60
2023-05-14T15:43:22.601Z,3.70
2023-05-14T15:45:50.600Z,3.70
2023-05-14T15:48:19.885Z,4.40
2023-05-14T15:50:51.619Z,4.00
2023-05-14T15:53:19.465Z,4.90
2023-05-14T15:55:50.429Z,4.60
2023-05-14T15:58:18.202Z,4.10
2023-05-14T16:00:45.957Z,4.20
2023-05-14T16:03:15.452Z,4.80
2023-05-14T16:05:44.756Z,4.30
2023-05-14T16:08:12.606Z,4.50
2023-05-14T16:10:40.670Z,5.00
2023-05-14T16:13:08.384Z,5.60
2023-05-14T16:15:36.305Z,5.80
2023-05-14T16:18:04.401Z,5.20
2023-05-14T16:20:32.203Z,6.00
2023-05-14T16:22:59.978Z,6.10
2023-05-14T16:25:30.304Z,6.70
2023-05-14T16:27:58.057Z,6.50
2023-05-14T16:30:26.080Z,6.10
2023-05-14T16:32:54.353Z,6.00
2023-05-14T16:35:22.275Z,5.20
2023-05-14T16:37:50.523Z,5.10
2023-05-14T16:40:19.758Z,5.90
2023-05-14T16:42:49.243Z,7.30
2023-05-14T16:45:17.460Z,6.90
2023-05-14T16:47:45.458Z,7.10
2023-05-14T16:50:13.365Z,6.60
2023-05-14T16:52:41.184Z,6.80
2023-05-14T16:55:09.531Z,5.80
2023-05-14T16:57:37.450Z,5.60
2023-05-14T17:00:06.611Z,5.60
2023-05-14T17:02:36.103Z,6.10
2023-05-14T17:05:04.584Z,6.60
2023-05-14T17:07:32.592Z,6.40
2023-05-14T17:10:03.510Z,6.40
2023-05-14T17:12:31.377Z,6.30
2023-05-14T17:14:59.351Z,6.10
2023-05-14T17:17:27.426Z,6.00
2023-05-14T17:19:55.263Z,5.60
2023-05-14T17:22:23.060Z,5.50
2023-05-14T17:24:50.918Z,6.10
2023-05-14T17:27:19.040Z,5.60
2023-05-14T17:29:51.025Z,6.40
2023-05-14T17:32:20.423Z,5.70
2023-05-14T17:34:48.396Z,6.90
2023-05-14T17:37:16.851Z,6.90
2023-05-14T17:39:44.662Z,7.60
2023-05-14T17:42:12.603Z,7.20
2023-05-14T17:44:40.650Z,7.00
2023-05-14T17:47:08.943Z,7.20
2023-05-14T17:49:36.866Z,7.10
2023-05-14T17:52:04.972Z,6.40
2023-05-14T17:54:32.793Z,6.20
2023-05-14T17:57:00.788Z,6.60
2023-05-14T17:59:28.955Z,5.90
2023-05-14T18:01:56.790Z,5.60
2023-05-14T18:04:24.719Z,5.80
2023-05-14T18:06:52.905Z,6.60
2023-05-14T18:09:21.365Z,5.20
2023-05-14T18:11:49.435Z,5.40
2023-05-14T18:14:18.721Z,5.60
2023-05-14T18:16:46.813Z,6.20
2023-05-14T18:19:15.269Z,6.10
2023-05-14T18:21:43.343Z,6.10
2023-05-14T18:24:13.543Z,7.20
2023-05-14T18:26:42.554Z,6.90
2023-05-14T18:29:10.381Z,6.50
2023-05-14T18:31:38.316Z,7.10
2023-05-14T18:34:06.168Z,7.80
2023-05-14T18:36:34.145Z,8.30
2023-05-14T18:39:01.879Z,8.00
2023-05-14T18:41:30.436Z,7.40
2023-05-14T18:43:58.387Z,8.80
2023-05-14T18:46:28.991Z,9.10
2023-05-14T18:48:57.027Z,8.70
2023-05-14T18:51:26.149Z,7.90
2023-05-14T18:53:54.752Z,8.50
2023-05-14T18:56:22.660Z,8.00
2023-05-14T18:58:50.544Z,8.60
2023-05-14T19:01:21.403Z,11.00
2023-05-14T19:03:49.296Z,11.10
2023-05-14T19:06:17.159Z,10.90
2023-05-14T19:08:46.191Z,8.80
2023-05-14T19:11:14.067Z,8.50
2023-05-14T19:13:46.645Z,9.00
2023-05-14T19:16:14.750Z,8.50
2023-05-14T19:18:42.923Z,7.30
2023-05-14T19:21:10.989Z,8.10
2023-05-14T19:23:39.579Z,8.10
2023-05-14T19:26:07.571Z,7.90
2023-05-14T19:28:37.933Z,8.30
2023-05-14T19:31:06.085Z,8.40
2023-05-14T19:33:33.968Z,8.50
2023-05-14T19:36:01.776Z,9.10
2023-05-14T19:38:30.497Z,8.50
2023-05-14T19:40:58.332Z,8.30
2023-05-14T19:43:28.048Z,8.00
2023-05-14T19:45:56.123Z,7.70
2023-05-14T19:48:24.112Z,7.90
2023-05-14T19:50:52.134Z,8.50
2023-05-14T19:53:19.877Z,8.40
2023-05-14T19:55:48.898Z,9.00
2023-05-14T19:58:16.746Z,8.80
2023-05-14T20:00:44.580Z,9.10
2023-05-14T20:03:15.802Z,9.10
2023-05-14T20:05:46.551Z,9.70
2023-05-14T20:08:16.984Z,9.30
2023-05-14T20:10:45.150Z,9.50
2023-05-14T20:13:13.092Z,9.30
2023-05-14T20:15:41.432Z,9.50
2023-05-14T20:18:09.413Z,9.40
2023-05-14T20:20:37.400Z,9.20
2023-05-14T20:23:06.373Z,10.00
2023-05-14T20:25:35.047Z,10.50
2023-05-14T20:28:02.874Z,9.60
2023-05-14T20:30:31.553Z,10.50
2023-05-14T20:32:59.584Z,10.70
2023-05-14T20:35:27.690Z,9.60
2023-05-14T20:37:56.500Z,10.50
2023-05-14T20:40:25.357Z,10.30
2023-05-14T20:42:53.231Z,10.90
2023-05-14T20:45:24.281Z,9.30
2023-05-14T20:47:52.705Z,9.20
2023-05-14T20:50:21.629Z,9.00
2023-05-14T20:52:49.394Z,8.00
2023-05-14T20:55:17.945Z,8.30
2023-05-14T20:57:45.775Z,9.00
2023-05-14T21:00:15.097Z,9.40
2023-05-14T21:02:43.515Z,9.90
2023-05-14T21:05:11.429Z,10.50
2023-05-14T21:07:39.497Z,10.40
2023-05-14T21:10:09.310Z,11.10
2023-05-14T21:12:37.178Z,10.70
2023-05-14T21:15:05.811Z,10.00
2023-05-14T21:17:33.774Z,10.90
2023-05-14T21:20:01.617Z,10.50
2023-05-14T21:22:29.438Z,10.10
2023-05-14T21:24:57.288Z,11.20
2023-05-14T21:27:25.139Z,12.10
2023-05-14T21:29:52.921Z,14.90
2023-05-14T21:32:22.446Z,11.70
2023-05-14T21:34:50.387Z,9.60
2023-05-14T21:37:18.186Z,10.50
2023-05-14T21:39:45.996Z,9.30
2023-05-14T21:42:13.830Z,9.70
2023-05-14T21:44:43.149Z,10.30
2023-05-14T21:47:11.488Z,11.00
2023-05-14T21:49:39.196Z,9.70
2023-05-14T21:52:08.048Z,9.30
2023-05-14T21:54:35.884Z,9.20
2023-05-14T21:57:03.810Z,9.60
2023-05-14T21:59:33.765Z,10.10
2023-05-14T22:04:32.327Z,10.60
2023-05-14T22:07:00.148Z,10.00
2023-05-14T22:09:27.927Z,9.90
2023-05-14T22:11:57.148Z,11.30
2023-05-14T22:14:26.697Z,11.20
2023-05-14T22:16:54.604Z,12.40
2023-05-14T22:19:22.569Z,12.40
2023-05-14T22:21:50.299Z,11.50
2023-05-14T22:24:18.113Z,12.10
2023-05-14T22:26:46.062Z,13.30
2023-05-14T22:29:13.795Z,12.00
2023-05-14T22:31:41.582Z,12.10
2023-05-14T22:34:09.441Z,12.30
2023-05-14T22:36:37.398Z,11.60
2023-05-14T22:39:05.249Z,10.90
2023-05-14T22:41:33.163Z,10.80
2023-05-14T22:44:01.184Z,10.60
2023-05-14T22:46:29.651Z,11.00
2023-05-14T22:48:57.594Z,11.10
2023-05-14T22:51:25.981Z,10.00
2023-05-14T22:53:54.628Z,10.10
2023-05-14T22:56:22.412Z,9.50
2023-05-14T22:58:50.487Z,11.10
2023-05-14T23:01:18.286Z,9.80
2023-05-14T23:03:46.092Z,10.40
2023-05-14T23:06:14.695Z,10.00
2023-05-14T23:08:42.581Z,10.30
2023-05-14T23:11:10.380Z,10.40
2023-05-14T23:13:38.160Z,9.30
2023-05-14T23:16:06.113Z,10.10
2023-05-14T23:18:34.340Z,9.10
2023-05-14T23:21:02.396Z,9.00
2023-05-14T23:23:30.116Z,8.80
2023-05-14T23:25:58.017Z,9.80
2023-05-14T23:28:25.893Z,8.30
2023-05-14T23:30:53.661Z,7.50
2023-05-14T23:33:21.794Z,8.20
2023-05-14T23:35:49.660Z,8.50
2023-05-14T23:38:17.657Z,8.30
2023-05-14T23:40:45.477Z,8.30
2023-05-14T23:43:14.685Z,8.60
2023-05-14T23:45:42.650Z,8.00
2023-05-14T23:48:11.299Z,8.10
2023-05-14T23:50:39.092Z,8.70
2023-05-14T23:53:07.871Z,8.70
2023-05-14T23:55:35.923Z,9.70
2023-05-14T23:58:03.861Z,9.20
